Time;durP1;ratioP1;P1;durP2;ratioP2;P2;SDS_P1;SDS_P2;PMS_P1;PMS_P2;Temp;Humidity;BMP_temperature;BMP_pressure;BME280_temperature;BME280_humidity;BME280_pressure;Samples;Min_cycle;Max_cycle;Signal;HPM_P1;HPM_P2
2022/03/08 00:02:23;;;;;;;2.13;1.00;;;17.80;52.50;;;;;;10455242;28;20037;-59
2022/03/08 00:07:24;;;;;;;2.72;1.00;;;17.80;52.80;;;;;;10455625;28;20083;-59
2022/03/08 00:12:24;;;;;;;1.63;1.10;;;17.80;52.60;;;;;;10447721;28;20442;-59
2022/03/08 00:17:25;;;;;;;2.38;1.40;;;17.70;52.70;;;;;;10449305;28;20048;-58
2022/03/08 00:22:27;;;;;;;2.92;1.25;;;17.70;52.60;;;;;;10456720;28;20029;-59
2022/03/08 00:27:28;;;;;;;1.63;1.08;;;17.80;52.70;;;;;;10436982;28;20036;-58
2022/03/08 00:32:29;;;;;;;1.33;1.00;;;17.80;52.50;;;;;;10444556;28;20068;-60
2022/03/08 00:37:30;;;;;;;0.77;0.60;;;17.80;52.50;;;;;;10470078;28;20529;-59
2022/03/08 00:42:30;;;;;;;2.05;1.20;;;17.80;52.50;;;;;;10454141;28;20112;-59
2022/03/08 00:47:31;;;;;;;1.67;0.95;;;17.70;52.50;;;;;;10454195;28;20104;-59
2022/03/08 00:52:32;;;;;;;1.50;0.90;;;17.70;52.50;;;;;;10452391;28;20044;-59
2022/03/08 00:57:33;;;;;;;1.60;0.95;;;17.80;52.50;;;;;;10460240;28;20037;-59
2022/03/08 01:02:33;;;;;;;1.60;1.33;;;17.80;52.30;;;;;;10452202;28;20028;-59
2022/03/08 01:07:34;;;;;;;1.42;0.80;;;17.90;52.00;;;;;;10452804;28;20492;-60
2022/03/08 01:12:35;;;;;;;2.08;0.73;;;17.90;52.00;;;;;;10435676;28;20377;-59
2022/03/08 01:17:36;;;;;;;1.55;0.80;;;17.90;52.00;;;;;;10448700;28;20035;-59
2022/03/08 01:22:37;;;;;;;2.25;1.13;;;17.90;52.10;;;;;;10449593;28;20032;-58
2022/03/08 01:27:38;;;;;;;1.63;1.10;;;17.80;52.20;;;;;;10448352;28;20036;-59
2022/03/08 01:32:39;;;;;;;2.15;1.17;;;17.80;52.20;;;;;;10443231;28;20095;-59
2022/03/08 01:37:40;;;;;;;1.48;0.90;;;17.70;52.40;;;;;;10460167;28;20453;-58
2022/03/08 01:42:46;;;;;;;1.60;1.00;;;17.80;52.30;;;;;;10452193;28;20036;-59
2022/03/08 01:47:47;;;;;;;1.52;1.08;;;17.70;52.40;;;;;;10459741;28;20029;-58
2022/03/08 01:52:49;;;;;;;1.23;0.80;;;17.80;52.20;;;;;;10459130;28;20033;-59
2022/03/08 01:57:51;;;;;;;1.77;1.13;;;17.80;52.10;;;;;;10459432;28;20060;-59
2022/03/08 02:02:52;;;;;;;1.67;0.93;;;17.90;51.90;;;;;;10445447;28;20045;-59
2022/03/08 02:07:54;;;;;;;1.65;1.00;;;17.90;51.90;;;;;;10460086;28;20029;-60
2022/03/08 02:12:55;;;;;;;1.20;0.80;;;17.90;52.50;;;;;;10458384;28;20029;-59
2022/03/08 02:17:58;;;;;;;1.45;0.85;;;17.80;51.90;;;;;;10459957;28;20024;-58
2022/03/08 02:23:00;;;;;;;2.25;1.27;;;17.90;52.60;;;;;;10459189;28;20108;-59
2022/03/08 02:28:01;;;;;;;1.40;1.00;;;17.80;51.90;;;;;;10474704;28;20021;-60
2022/03/08 02:33:02;;;;;;;2.92;1.02;;;17.80;51.90;;;;;;10443152;28;20616;-59
2022/03/08 02:38:06;;;;;;;2.22;1.10;;;17.80;51.90;;;;;;10457351;28;20064;-59
2022/03/08 02:43:10;;;;;;;1.33;0.85;;;17.80;51.70;;;;;;10456744;28;20036;-59
2022/03/08 02:48:11;;;;;;;1.10;0.90;;;17.80;51.90;;;;;;10457027;28;20033;-59
2022/03/08 02:53:12;;;;;;;2.20;1.27;;;17.90;51.80;;;;;;10440611;28;20029;-60
2022/03/08 02:58:13;;;;;;;1.58;1.02;;;17.90;51.70;;;;;;10463255;28;20354;-59
2022/03/08 03:03:14;;;;;;;1.30;0.98;;;17.90;51.70;;;;;;10448571;28;20059;-59
2022/03/08 03:08:15;;;;;;;2.00;1.00;;;17.80;51.70;;;;;;10443813;28;20509;-59
2022/03/08 03:13:16;;;;;;;1.70;0.77;;;17.80;51.60;;;;;;10456206;28;20029;-60
2022/03/08 03:18:16;;;;;;;0.95;0.88;;;17.80;51.70;;;;;;10455753;28;20033;-59
2022/03/08 03:23:17;;;;;;;1.70;1.13;;;17.80;51.70;;;;;;10442681;28;20477;-59
2022/03/08 03:28:18;;;;;;;1.15;0.82;;;17.80;51.60;;;;;;10455155;28;20549;-58
2022/03/08 03:33:18;;;;;;;0.82;0.75;;;17.90;51.60;;;;;;10455146;28;20183;-59
2022/03/08 03:38:19;;;;;;;1.27;0.70;;;17.90;51.60;;;;;;10454747;28;20037;-59
2022/03/08 03:43:20;;;;;;;1.60;1.08;;;17.90;51.60;;;;;;10455408;28;20028;-58
2022/03/08 03:48:20;;;;;;;1.15;0.80;;;17.80;51.60;;;;;;10454586;28;20116;-59
2022/03/08 03:53:21;;;;;;;1.63;0.88;;;17.90;51.50;;;;;;10452046;28;20036;-59
2022/03/08 03:58:22;;;;;;;1.33;0.82;;;17.90;51.50;;;;;;10461257;28;20025;-59
2022/03/08 04:03:23;;;;;;;1.25;0.73;;;17.80;51.60;;;;;;10434787;28;20115;-59
2022/03/08 04:08:23;;;;;;;1.23;0.80;;;17.80;51.50;;;;;;10454255;28;20574;-59
2022/03/08 04:13:24;;;;;;;1.30;0.60;;;17.80;51.50;;;;;;10454002;28;20056;-58
2022/03/08 04:18:25;;;;;;;1.42;0.93;;;17.80;51.40;;;;;;10453450;28;20021;-59
2022/03/08 04:23:26;;;;;;;1.73;0.75;;;17.80;51.40;;;;;;10470528;28;20029;-58
2022/03/08 04:28:26;;;;;;;2.30;1.30;;;17.80;51.30;;;;;;10453283;28;20033;-59
2022/03/08 04:33:27;;;;;;;2.05;0.95;;;17.90;51.30;;;;;;10447453;28;20440;-59
2022/03/08 04:38:28;;;;;;;1.52;0.82;;;18.00;51.00;;;;;;10454473;28;20059;-59
2022/03/08 04:43:29;;;;;;;1.77;0.93;;;18.00;51.00;;;;;;10453361;28;20033;-59
2022/03/08 04:48:30;;;;;;;1.35;0.70;;;17.90;51.20;;;;;;10452960;28;20033;-58
2022/03/08 04:53:30;;;;;;;1.60;0.80;;;17.90;51.10;;;;;;10453818;28;20086;-60
2022/03/08 04:58:31;;;;;;;1.02;0.80;;;17.80;51.20;;;;;;10460711;28;20097;-59
2022/03/08 05:03:32;;;;;;;1.05;0.82;;;17.90;51.20;;;;;;10454216;28;20397;-59
2022/03/08 05:08:33;;;;;;;0.60;0.57;;;17.80;51.20;;;;;;10459725;28;20124;-59
2022/03/08 05:13:33;;;;;;;1.25;0.68;;;17.90;51.20;;;;;;10461198;28;20031;-58
2022/03/08 05:18:34;;;;;;;0.80;0.55;;;17.90;51.10;;;;;;10459848;28;20041;-59
2022/03/08 05:23:35;;;;;;;1.20;0.77;;;17.90;51.10;;;;;;10458615;28;20032;-59
2022/03/08 05:28:36;;;;;;;1.05;0.75;;;17.90;51.10;;;;;;10460304;28;20112;-58
2022/03/08 05:33:36;;;;;;;1.08;0.90;;;17.90;50.90;;;;;;10442409;28;20045;-58
2022/03/08 05:38:37;;;;;;;1.38;0.80;;;17.90;50.90;;;;;;10459222;28;20041;-58
2022/03/08 05:43:38;;;;;;;1.25;0.95;;;18.00;50.70;;;;;;10460889;28;20440;-58
2022/03/08 05:48:38;;;;;;;1.10;0.70;;;17.90;50.80;;;;;;10444989;28;20464;-59
2022/03/08 05:53:39;;;;;;;1.02;0.75;;;18.00;51.40;;;;;;10438314;28;20079;-59
2022/03/08 05:58:40;;;;;;;4.40;0.85;;;18.00;50.80;;;;;;10444477;28;20132;-58
2022/03/08 06:03:40;;;;;;;4.35;1.13;;;17.90;50.90;;;;;;10434075;28;20170;-58
2022/03/08 06:08:41;;;;;;;7.68;1.52;;;18.00;51.00;;;;;;10458623;28;20522;-58
2022/03/08 06:13:42;;;;;;;6.82;1.60;;;18.00;51.50;;;;;;10433771;28;20500;-59
2022/03/08 06:18:43;;;;;;;12.10;1.75;;;17.90;52.80;;;;;;10451365;28;20370;-58
2022/03/08 06:23:43;;;;;;;8.73;1.23;;;18.10;53.50;;;;;;10458506;28;20044;-59
2022/03/08 06:28:44;;;;;;;6.55;1.33;;;18.00;54.20;;;;;;10459219;28;20033;-59
2022/03/08 06:33:45;;;;;;;7.95;1.80;;;18.00;54.40;;;;;;10457627;28;20358;-59
2022/03/08 06:38:46;;;;;;;10.48;1.67;;;18.10;54.00;;;;;;10450361;28;20116;-58
2022/03/08 06:43:47;;;;;;;8.68;2.15;;;18.00;53.80;;;;;;10459923;28;20028;-58
2022/03/08 06:48:47;;;;;;;8.38;1.33;;;17.80;54.00;;;;;;10457975;28;20087;-60
2022/03/08 06:53:49;;;;;;;7.00;1.80;;;17.70;54.00;;;;;;10439112;28;20431;-58
2022/03/08 06:58:50;;;;;;;6.32;1.80;;;17.70;53.90;;;;;;10459145;28;20036;-58
2022/03/08 07:03:52;;;;;;;9.70;2.00;;;17.70;53.50;;;;;;10448087;28;20078;-58
2022/03/08 07:08:53;;;;;;;14.18;2.25;;;17.60;53.40;;;;;;10456434;28;20037;-58
2022/03/08 07:13:54;;;;;;;4.80;1.30;;;17.70;53.40;;;;;;10457310;28;20386;-58
2022/03/08 07:18:55;;;;;;;9.07;1.70;;;17.60;53.50;;;;;;10456815;28;20029;-59
2022/03/08 07:23:55;;;;;;;11.90;2.53;;;17.50;53.90;;;;;;10455158;28;20124;-57
2022/03/08 07:28:56;;;;;;;8.18;1.67;;;17.60;53.40;;;;;;10455339;28;20148;-58
2022/03/08 07:33:57;;;;;;;7.88;2.15;;;17.70;52.90;;;;;;10453460;28;20456;-58
2022/03/08 07:38:58;;;;;;;5.57;2.13;;;17.60;52.90;;;;;;10437534;28;20028;-57
2022/03/08 07:44:01;;;;;;;4.57;1.70;;;17.70;52.50;;;;;;10453757;28;20082;-58
2022/03/08 07:49:02;;;;;;;6.70;1.50;;;17.80;52.50;;;;;;10444912;28;20119;-58
2022/03/08 07:54:03;;;;;;;6.18;1.50;;;17.80;52.60;;;;;;10451068;28;20459;-58
2022/03/08 07:59:03;;;;;;;2.67;1.35;;;17.80;52.70;;;;;;10455055;28;20112;-58
2022/03/08 08:04:04;;;;;;;4.97;1.60;;;17.70;53.20;;;;;;10453852;28;20028;-59
2022/03/08 08:09:05;;;;;;;4.22;1.48;;;17.60;52.60;;;;;;10453395;28;20029;-58
2022/03/08 08:14:05;;;;;;;3.92;1.40;;;17.60;52.70;;;;;;10455254;28;20385;-58
2022/03/08 08:19:06;;;;;;;2.60;1.00;;;17.60;52.60;;;;;;10446335;28;20029;-57
2022/03/08 08:24:07;;;;;;;4.40;1.30;;;17.50;53.00;;;;;;10453806;28;20414;-57
2022/03/08 08:29:08;;;;;;;3.65;1.42;;;17.40;53.30;;;;;;10451297;28;20390;-57
2022/03/08 08:34:08;;;;;;;3.63;1.60;;;17.40;54.00;;;;;;10451777;28;20068;-58
2022/03/08 08:39:09;;;;;;;4.13;1.50;;;17.30;54.10;;;;;;10440598;28;20040;-57
2022/03/08 08:44:11;;;;;;;4.35;1.83;;;17.30;54.10;;;;;;10453127;28;20071;-58
2022/03/08 08:49:12;;;;;;;4.70;1.17;;;17.20;54.20;;;;;;10448642;28;20086;-61
2022/03/08 08:54:13;;;;;;;3.53;1.40;;;17.30;54.10;;;;;;10453401;28;20550;-57
2022/03/08 08:59:14;;;;;;;3.63;1.30;;;17.30;54.00;;;;;;10460743;28;20124;-57
2022/03/08 09:04:14;;;;;;;4.57;1.70;;;17.30;53.80;;;;;;10451474;28;20031;-57
2022/03/08 09:09:15;;;;;;;3.95;1.65;;;17.30;53.80;;;;;;10453185;28;20602;-57
2022/03/08 09:14:16;;;;;;;5.28;1.10;;;17.30;53.80;;;;;;10446526;28;20041;-58
2022/03/08 09:19:16;;;;;;;2.70;1.60;;;17.30;53.80;;;;;;10452058;28;20120;-57
2022/03/08 09:24:17;;;;;;;1.80;1.23;;;17.30;53.80;;;;;;10452133;28;20111;-58
2022/03/08 09:29:18;;;;;;;4.72;1.88;;;17.30;53.80;;;;;;10450275;28;20405;-58
2022/03/08 09:34:19;;;;;;;2.45;1.15;;;17.30;53.90;;;;;;10451502;28;20516;-58
2022/03/08 09:39:19;;;;;;;2.08;1.25;;;17.20;53.90;;;;;;10450548;28;20029;-58
2022/03/08 09:44:21;;;;;;;3.40;1.65;;;17.30;53.90;;;;;;10451891;28;20036;-58
2022/03/08 09:49:22;;;;;;;3.60;1.42;;;17.20;53.90;;;;;;10451479;28;20409;-58
2022/03/08 09:54:23;;;;;;;2.65;1.58;;;17.30;54.00;;;;;;10448672;28;20069;-58
2022/03/08 09:59:29;;;;;;;2.45;1.13;;;17.30;54.00;;;;;;10459914;28;20062;-58
2022/03/08 10:04:30;;;;;;;2.00;1.05;;;17.20;53.90;;;;;;10451791;28;20052;-59
2022/03/08 10:09:30;;;;;;;1.85;1.27;;;17.20;53.80;;;;;;10456652;28;20437;-58
2022/03/08 10:14:38;;;;;;;2.50;1.58;;;17.30;54.00;;;;;;10457235;28;20476;-57
2022/03/08 10:19:47;;;;;;;1.80;1.20;;;17.30;53.90;;;;;;10457965;28;20025;-58
2022/03/08 10:24:48;;;;;;;2.67;1.48;;;17.20;53.60;;;;;;10458939;28;20106;-59
2022/03/08 10:29:50;;;;;;;2.13;1.27;;;17.30;53.60;;;;;;10448507;28;20041;-58
2022/03/08 10:34:58;;;;;;;2.85;1.48;;;17.30;53.60;;;;;;10457123;28;20119;-58
2022/03/08 10:40:05;;;;;;;2.92;1.20;;;17.30;53.50;;;;;;10458184;28;20515;-59
2022/03/08 10:45:15;;;;;;;2.47;1.45;;;17.40;53.50;;;;;;10457093;28;20029;-58
2022/03/08 10:50:19;;;;;;;2.03;1.30;;;17.30;53.50;;;;;;10456965;28;20044;-58
2022/03/08 10:55:35;;;;;;;1.73;1.20;;;17.40;53.50;;;;;;10461983;28;20060;-58
2022/03/08 11:00:50;;;;;;;2.65;1.58;;;17.30;53.40;;;;;;10446098;28;20033;-57
2022/03/08 11:05:55;;;;;;;4.20;1.55;;;17.40;53.40;;;;;;10456852;28;20032;-58
2022/03/08 11:10:56;;;;;;;1.95;1.00;;;17.40;53.40;;;;;;10451070;28;20513;-58
2022/03/08 11:15:57;;;;;;;2.65;1.20;;;17.40;53.30;;;;;;10452270;28;20036;-58
2022/03/08 11:20:58;;;;;;;1.95;1.20;;;17.40;53.30;;;;;;10448585;28;20055;-59
2022/03/08 11:26:00;;;;;;;3.60;1.55;;;17.40;53.10;;;;;;10443291;28;20039;-58
2022/03/08 11:31:01;;;;;;;2.03;1.25;;;17.50;53.00;;;;;;10450537;28;20167;-58
2022/03/08 11:36:32;;;;;;;2.17;1.20;;;17.50;52.90;;;;;;10453349;28;20049;-59
2022/03/08 11:41:33;;;;;;;4.55;1.35;;;17.50;52.90;;;;;;10449450;28;20043;-57
2022/03/08 11:46:34;;;;;;;2.63;1.40;;;17.50;52.90;;;;;;10453295;28;20536;-58
2022/03/08 11:51:34;;;;;;;1.42;1.08;;;17.60;52.90;;;;;;10452988;28;20047;-58
2022/03/08 11:56:51;;;;;;;1.77;1.30;;;17.60;52.90;;;;;;10460577;28;20056;-58
2022/03/08 12:01:54;;;;;;;1.10;0.90;;;17.60;52.80;;;;;;10445969;28;20067;-58
2022/03/08 12:06:58;;;;;;;1.35;1.10;;;17.60;52.70;;;;;;10441911;28;20078;-57
2022/03/08 12:12:03;;;;;;;1.75;1.00;;;17.60;52.80;;;;;;10453397;28;20104;-58
2022/03/08 12:17:12;;;;;;;2.42;1.08;;;17.60;52.90;;;;;;10452812;28;20051;-58
2022/03/08 12:22:23;;;;;;;1.52;1.02;;;17.60;52.90;;;;;;10453898;28;20036;-58
2022/03/08 12:27:45;;;;;;;2.83;1.27;;;17.60;52.90;;;;;;10451233;28;20029;-58
2022/03/08 12:32:47;;;;;;;2.25;1.30;;;17.60;52.90;;;;;;10451972;28;20094;-59
2022/03/08 12:38:02;;;;;;;2.05;1.20;;;17.70;52.80;;;;;;10452913;28;20025;-57
2022/03/08 12:43:12;;;;;;;1.95;1.17;;;17.70;52.90;;;;;;10453327;28;20456;-58
2022/03/08 12:48:21;;;;;;;1.98;1.10;;;17.70;52.80;;;;;;10442047;28;20033;-58
2022/03/08 12:53:25;;;;;;;2.78;1.42;;;17.70;52.70;;;;;;10449136;28;20071;-58
2022/03/08 12:58:37;;;;;;;1.85;1.35;;;17.70;52.70;;;;;;10455846;28;20585;-58
2022/03/08 13:03:44;;;;;;;3.15;1.23;;;17.70;52.70;;;;;;10440600;28;20037;-58
2022/03/08 13:08:44;;;;;;;3.85;1.23;;;17.70;52.90;;;;;;10441954;28;20441;-57
2022/03/08 13:13:45;;;;;;;1.95;1.10;;;17.60;52.80;;;;;;10449285;28;20047;-58
2022/03/08 13:18:46;;;;;;;4.32;1.52;;;17.70;52.80;;;;;;10453085;28;20485;-59
2022/03/08 13:23:48;;;;;;;2.55;1.23;;;17.70;52.60;;;;;;10450985;28;20131;-60
2022/03/08 13:28:49;;;;;;;4.00;1.40;;;17.70;52.50;;;;;;10456667;28;20033;-59
2022/03/08 13:33:52;;;;;;;6.13;1.60;;;17.80;52.90;;;;;;10460191;28;20461;-61
2022/03/08 13:38:55;;;;;;;5.03;1.85;;;17.80;52.90;;;;;;10460680;28;20033;-58
2022/03/08 13:44:00;;;;;;;3.30;1.75;;;17.70;53.20;;;;;;10443244;28;20545;-61
2022/03/08 13:49:11;;;;;;;6.15;1.88;;;17.80;53.10;;;;;;10448401;28;20058;-62
2022/03/08 13:54:12;;;;;;;6.30;2.38;;;17.70;52.90;;;;;;10459767;28;20094;-61
2022/03/08 13:59:35;;;;;;;6.90;2.33;;;17.70;52.90;;;;;;10464717;28;20021;-61
2022/03/08 14:04:36;;;;;;;3.50;1.55;;;17.70;52.80;;;;;;10453779;28;20048;-61
2022/03/08 14:09:37;;;;;;;3.05;1.52;;;17.70;53.00;;;;;;10438008;28;20033;-61
2022/03/08 14:14:39;;;;;;;2.05;1.02;;;17.70;53.00;;;;;;10459677;28;20483;-60
2022/03/08 14:19:47;;;;;;;5.75;1.25;;;17.80;53.00;;;;;;10458654;28;20033;-61
2022/03/08 14:24:59;;;;;;;2.53;1.42;;;17.80;53.10;;;;;;10459136;28;20091;-61
2022/03/08 14:30:05;;;;;;;2.53;1.60;;;17.70;53.10;;;;;;10458035;28;20028;-61
2022/03/08 14:35:15;;;;;;;2.75;1.20;;;17.70;53.30;;;;;;10457979;28;20041;-61
2022/03/08 14:40:45;;;;;;;3.28;1.13;;;17.70;53.30;;;;;;10456748;28;20029;-61
2022/03/08 14:45:46;;;;;;;2.58;1.45;;;17.70;53.30;;;;;;10449993;28;20033;-60
2022/03/08 14:50:47;;;;;;;2.63;1.52;;;17.70;53.20;;;;;;10458584;28;20084;-62
2022/03/08 14:55:49;;;;;;;1.63;1.15;;;17.70;53.30;;;;;;10463578;28;20043;-62
2022/03/08 15:00:50;;;;;;;5.93;1.90;;;17.70;53.20;;;;;;10472925;28;20124;-61
2022/03/08 15:05:51;;;;;;;9.18;1.92;;;17.70;53.10;;;;;;10450643;28;20108;-61
2022/03/08 15:10:51;;;;;;;6.88;2.30;;;17.70;52.90;;;;;;10457695;28;20098;-61
2022/03/08 15:15:53;;;;;;;12.43;2.60;;;17.70;52.80;;;;;;10457030;28;20035;-61
2022/03/08 15:20:53;;;;;;;8.43;2.85;;;17.70;52.80;;;;;;10456427;28;20025;-59
2022/03/08 15:25:54;;;;;;;12.90;2.70;;;17.70;53.30;;;;;;10455970;28;20373;-58
2022/03/08 15:30:55;;;;;;;10.50;3.40;;;17.80;54.10;;;;;;10454837;28;20551;-58
2022/03/08 15:35:56;;;;;;;7.18;2.03;;;17.80;54.50;;;;;;10454537;28;20099;-59
2022/03/08 15:40:58;;;;;;;9.27;4.40;;;17.80;54.90;;;;;;10451891;28;20107;-59
2022/03/08 15:45:58;;;;;;;11.63;3.38;;;18.10;62.10;;;;;;10453943;28;20531;-59
2022/03/08 15:50:59;;;;;;;7.43;3.00;;;17.90;55.90;;;;;;10437509;28;20028;-59
2022/03/08 15:56:00;;;;;;;9.90;3.00;;;17.80;56.50;;;;;;10445859;28;20061;-60
2022/03/08 16:01:02;;;;;;;14.75;3.28;;;17.70;56.80;;;;;;10452787;28;20041;-58
2022/03/08 16:06:02;;;;;;;19.77;4.10;;;17.50;55.30;;;;;;10458979;28;20474;-59
2022/03/08 16:11:04;;;;;;;8.50;3.83;;;17.50;54.50;;;;;;10455547;28;20128;-59
2022/03/08 16:16:06;;;;;;;12.82;3.17;;;17.40;53.80;;;;;;10438028;28;20040;-58
2022/03/08 16:21:07;;;;;;;14.48;4.57;;;17.40;53.40;;;;;;10436736;28;20473;-58
2022/03/08 16:26:08;;;;;;;10.63;3.50;;;17.50;54.50;;;;;;10441202;28;20052;-58
2022/03/08 16:31:09;;;;;;;7.90;3.38;;;17.60;53.40;;;;;;10443309;28;20044;-58
2022/03/08 16:36:10;;;;;;;11.95;4.82;;;17.70;54.00;;;;;;10454358;28;20463;-58
2022/03/08 16:41:11;;;;;;;9.85;4.10;;;17.80;54.50;;;;;;10453475;28;20028;-58
2022/03/08 16:46:11;;;;;;;8.65;3.55;;;17.90;53.40;;;;;;10453366;28;20075;-58
2022/03/08 16:51:12;;;;;;;8.73;3.33;;;17.50;52.90;;;;;;10454202;28;20037;-58
2022/03/08 16:56:14;;;;;;;6.97;3.10;;;17.40;50.60;;;;;;10454715;28;20033;-58
2022/03/08 17:01:14;;;;;;;6.15;2.97;;;17.30;50.50;;;;;;10449917;28;20100;-57
2022/03/08 17:06:15;;;;;;;29.20;4.55;;;17.20;51.00;;;;;;10448463;28;20033;-58
2022/03/08 17:11:16;;;;;;;16.85;3.47;;;17.30;50.50;;;;;;10460510;28;20511;-57
2022/03/08 17:16:17;;;;;;;11.38;4.00;;;17.40;50.70;;;;;;10460359;28;20424;-57
2022/03/08 17:21:18;;;;;;;13.95;3.55;;;17.80;52.60;;;;;;10447644;28;20584;-58
2022/03/08 17:26:18;;;;;;;12.25;3.45;;;18.00;54.10;;;;;;10460625;28;20115;-58
2022/03/08 17:31:19;;;;;;;10.52;3.33;;;18.00;53.30;;;;;;10443586;28;20044;-58
2022/03/08 17:36:20;;;;;;;18.77;4.53;;;18.00;54.50;;;;;;10461493;28;20037;-59
2022/03/08 17:41:21;;;;;;;12.35;3.55;;;18.00;54.50;;;;;;10460208;28;20115;-59
2022/03/08 17:46:21;;;;;;;17.50;3.58;;;17.90;54.70;;;;;;10460079;28;20480;-60
2022/03/08 17:51:22;;;;;;;12.25;3.45;;;17.70;54.80;;;;;;10461115;28;20077;-58
2022/03/08 17:56:24;;;;;;;14.95;3.78;;;17.60;54.60;;;;;;10465122;28;20057;-58
2022/03/08 18:01:25;;;;;;;23.40;3.90;;;17.50;55.10;;;;;;10454622;28;20036;-58
2022/03/08 18:06:25;;;;;;;17.52;4.00;;;17.50;55.30;;;;;;10454566;28;20037;-61
2022/03/08 18:11:26;;;;;;;21.13;5.05;;;17.50;55.60;;;;;;10446113;28;20032;-58
2022/03/08 18:16:27;;;;;;;18.65;4.22;;;17.40;55.60;;;;;;10440406;28;20035;-59
2022/03/08 18:21:27;;;;;;;12.02;3.67;;;17.30;55.50;;;;;;10456793;28;20021;-58
2022/03/08 18:26:28;;;;;;;11.82;4.00;;;17.30;55.70;;;;;;10457124;28;20033;-58
2022/03/08 18:31:29;;;;;;;12.40;3.13;;;17.30;56.00;;;;;;10458338;28;20033;-58
2022/03/08 18:36:30;;;;;;;8.27;3.20;;;17.20;56.30;;;;;;10453834;28;20112;-58
2022/03/08 18:41:31;;;;;;;10.63;2.75;;;17.20;55.80;;;;;;10455227;28;20037;-59
2022/03/08 18:46:32;;;;;;;13.98;3.45;;;17.20;56.60;;;;;;10439785;28;20029;-57
2022/03/08 18:51:33;;;;;;;10.27;3.03;;;17.20;56.40;;;;;;10446797;28;20060;-59
2022/03/08 18:56:34;;;;;;;6.40;2.58;;;17.20;56.50;;;;;;10435121;28;20044;-59
2022/03/08 19:01:36;;;;;;;7.88;2.90;;;17.10;56.00;;;;;;10454846;28;20351;-58
2022/03/08 19:06:37;;;;;;;8.05;3.42;;;17.10;55.80;;;;;;10456581;28;20683;-58
2022/03/08 19:11:38;;;;;;;9.15;2.92;;;17.20;56.40;;;;;;10456829;28;20032;-59
2022/03/08 19:16:38;;;;;;;12.23;3.60;;;17.20;56.30;;;;;;10439515;28;20032;-58
2022/03/08 19:21:39;;;;;;;8.00;2.58;;;17.20;56.30;;;;;;10446218;28;20032;-59
2022/03/08 19:26:40;;;;;;;12.57;3.40;;;17.20;56.50;;;;;;10455981;28;20401;-58
2022/03/08 19:31:41;;;;;;;6.97;2.53;;;17.30;57.20;;;;;;10445599;28;20053;-59
2022/03/08 19:36:43;;;;;;;6.53;2.97;;;17.30;56.70;;;;;;10444409;28;20037;-58
2022/03/08 19:41:44;;;;;;;8.20;3.30;;;17.20;56.70;;;;;;10439119;28;20425;-59
2022/03/08 19:46:44;;;;;;;6.70;2.65;;;17.30;57.00;;;;;;10415626;28;20037;-58
2022/03/08 19:51:45;;;;;;;7.25;3.17;;;17.30;56.90;;;;;;10422299;28;20032;-59
2022/03/08 19:56:47;;;;;;;6.85;3.00;;;17.30;57.20;;;;;;10458428;28;20431;-58
2022/03/08 20:01:48;;;;;;;6.28;3.25;;;17.30;57.00;;;;;;10452141;28;20028;-59
2022/03/08 20:06:49;;;;;;;7.15;3.80;;;17.30;57.10;;;;;;10450826;28;20032;-59
2022/03/08 20:11:50;;;;;;;6.10;2.90;;;17.30;56.50;;;;;;10453367;28;20397;-59
2022/03/08 20:16:51;;;;;;;6.28;3.13;;;17.30;57.20;;;;;;10453371;28;20021;-58
2022/03/08 20:21:51;;;;;;;10.75;3.75;;;17.30;57.10;;;;;;10452158;28;20052;-58
2022/03/08 20:26:53;;;;;;;7.10;2.92;;;17.30;57.20;;;;;;10454424;28;20049;-59
2022/03/08 20:31:54;;;;;;;6.68;3.83;;;17.30;57.20;;;;;;10448081;28;21429;-59
2022/03/08 20:36:58;;;;;;;7.38;3.65;;;17.20;57.30;;;;;;10444432;28;20564;-59
2022/03/08 20:41:58;;;;;;;8.32;3.58;;;17.30;56.50;;;;;;10451298;28;20520;-59
2022/03/08 20:46:59;;;;;;;7.45;3.20;;;17.30;56.20;;;;;;10448382;28;20035;-58
2022/03/08 20:52:00;;;;;;;7.57;3.35;;;17.30;56.00;;;;;;10451263;28;20104;-59
2022/03/08 20:57:01;;;;;;;7.40;3.35;;;17.40;55.80;;;;;;10451894;28;20465;-58
2022/03/08 21:02:02;;;;;;;6.07;3.50;;;17.50;55.40;;;;;;10454240;28;20025;-58
2022/03/08 21:07:03;;;;;;;4.90;2.85;;;17.40;55.20;;;;;;10454143;28;20033;-58
2022/03/08 21:12:04;;;;;;;4.18;3.08;;;17.50;54.90;;;;;;10452683;28;20028;-59
2022/03/08 21:17:05;;;;;;;4.47;3.10;;;17.60;54.70;;;;;;10452624;28;20025;-58
2022/03/08 21:22:06;;;;;;;6.05;3.35;;;17.50;54.70;;;;;;10436193;28;20021;-58
2022/03/08 21:27:07;;;;;;;5.78;3.25;;;17.50;54.70;;;;;;10447794;28;20105;-58
2022/03/08 21:32:08;;;;;;;6.45;2.95;;;17.60;54.40;;;;;;10453576;28;20045;-58
2022/03/08 21:37:11;;;;;;;6.20;2.88;;;17.60;54.40;;;;;;10435750;28;20418;-58
2022/03/08 21:42:12;;;;;;;6.47;3.15;;;17.60;54.20;;;;;;10451265;28;20033;-58
2022/03/08 21:47:12;;;;;;;3.65;2.25;;;17.60;54.20;;;;;;10441243;28;20025;-58
2022/03/08 21:52:13;;;;;;;5.05;3.50;;;17.60;54.30;;;;;;10460691;28;20029;-60
2022/03/08 21:57:14;;;;;;;4.05;2.47;;;17.70;53.90;;;;;;10467663;28;20104;-58
2022/03/08 22:02:15;;;;;;;4.22;2.42;;;17.60;53.90;;;;;;10451775;28;20163;-58
2022/03/08 22:07:15;;;;;;;4.32;2.50;;;17.70;53.80;;;;;;10451649;28;20033;-58
2022/03/08 22:12:16;;;;;;;4.35;2.83;;;17.70;53.80;;;;;;10459126;28;20120;-58
2022/03/08 22:17:18;;;;;;;4.45;2.38;;;17.60;53.80;;;;;;10453834;28;20035;-58
2022/03/08 22:22:19;;;;;;;3.65;2.67;;;17.50;53.90;;;;;;10458604;28;20456;-58
2022/03/08 22:27:22;;;;;;;4.30;2.72;;;17.60;53.80;;;;;;10459743;28;20057;-58
2022/03/08 22:32:23;;;;;;;4.43;2.70;;;17.60;53.60;;;;;;10459136;28;20048;-58
2022/03/08 22:37:24;;;;;;;5.25;3.03;;;17.60;53.70;;;;;;10458272;28;20063;-59
2022/03/08 22:42:25;;;;;;;4.13;2.40;;;17.60;53.60;;;;;;10445961;28;20092;-58
2022/03/08 22:47:25;;;;;;;4.13;2.55;;;17.60;53.50;;;;;;10457481;28;20094;-58
2022/03/08 22:52:26;;;;;;;4.38;2.22;;;17.70;53.40;;;;;;10458713;28;20097;-58
2022/03/08 22:57:27;;;;;;;4.18;2.55;;;17.70;53.30;;;;;;10463169;28;20029;-58
2022/03/08 23:02:27;;;;;;;3.85;2.67;;;17.70;53.30;;;;;;10446270;28;20483;-58
2022/03/08 23:07:28;;;;;;;5.53;2.70;;;17.70;53.30;;;;;;10457887;28;20056;-57
2022/03/08 23:12:29;;;;;;;4.15;2.90;;;17.70;53.20;;;;;;10456964;28;20040;-59
2022/03/08 23:17:29;;;;;;;4.18;2.47;;;17.70;53.10;;;;;;10472239;28;20033;-59
2022/03/08 23:22:30;;;;;;;4.25;2.50;;;17.70;53.00;;;;;;10452999;28;20426;-58
2022/03/08 23:27:31;;;;;;;4.30;2.38;;;17.70;53.10;;;;;;10457353;28;20541;-58
2022/03/08 23:32:31;;;;;;;4.57;2.30;;;17.70;52.90;;;;;;10455952;28;20080;-58
2022/03/08 23:37:32;;;;;;;4.38;2.58;;;17.70;53.00;;;;;;10455589;28;20487;-58
2022/03/08 23:42:33;;;;;;;3.92;2.17;;;17.70;53.00;;;;;;10444709;28;20048;-58
2022/03/08 23:47:33;;;;;;;4.80;2.72;;;17.70;53.00;;;;;;10445435;28;20100;-58
2022/03/08 23:52:34;;;;;;;3.75;2.22;;;17.70;52.80;;;;;;10429510;28;20171;-58
2022/03/08 23:57:35;;;;;;;3.33;2.17;;;17.70;52.80;;;;;;10461738;28;20090;-59
